Time;durP1;ratioP1;P1;durP2;ratioP2;P2;SDS_P1;SDS_P2;PMS_P1;PMS_P2;Temp;Humidity;BMP_temperature;BMP_pressure;BME280_temperature;BME280_humidity;BME280_pressure;Samples;Min_cycle;Max_cycle;Signal;HPM_P1;HPM_P2
2022/01/31 00:01:47;;;;;;;21.13;5.63;;;0.20;98.00;;;;;;5055532;28;20036;-66
2022/01/31 00:04:13;;;;;;;16.90;5.15;;;0.20;98.00;;;;;;5043677;28;20417;-66
2022/01/31 00:06:39;;;;;;;16.00;5.55;;;0.30;98.00;;;;;;5054879;28;20037;-66
2022/01/31 00:09:04;;;;;;;15.05;4.10;;;0.30;98.00;;;;;;5059576;28;20044;-66
2022/01/31 00:11:30;;;;;;;19.08;5.53;;;0.20;98.00;;;;;;5057941;28;20322;-66
2022/01/31 00:14:08;;;;;;;21.10;6.28;;;0.20;98.00;;;;;;5038859;28;20025;-66
2022/01/31 00:16:34;;;;;;;19.63;5.00;;;0.10;98.00;;;;;;5044598;28;20031;-66
2022/01/31 00:19:00;;;;;;;19.70;4.75;;;0.10;98.00;;;;;;5052624;28;20321;-65
2022/01/31 00:21:27;;;;;;;14.82;5.45;;;0.10;98.00;;;;;;5053172;28;20428;-66
2022/01/31 00:23:53;;;;;;;27.75;5.57;;;0.10;98.00;;;;;;5055567;28;20017;-66
2022/01/31 00:26:18;;;;;;;18.25;5.55;;;0.00;98.00;;;;;;5056483;28;20104;-65
2022/01/31 00:28:44;;;;;;;19.40;5.00;;;0.00;98.00;;;;;;5057516;28;20087;-66
2022/01/31 00:31:10;;;;;;;20.80;5.35;;;0.00;98.00;;;;;;5050639;28;20025;-65
2022/01/31 00:33:36;;;;;;;12.98;4.40;;;0.20;98.00;;;;;;5051598;28;20438;-65
2022/01/31 00:36:02;;;;;;;15.63;5.70;;;0.30;98.00;;;;;;5055450;28;20063;-66
2022/01/31 00:38:27;;;;;;;22.90;5.63;;;0.20;98.00;;;;;;5056218;28;20306;-67
2022/01/31 00:40:53;;;;;;;20.42;6.82;;;0.10;98.00;;;;;;5043856;28;20041;-66
2022/01/31 00:43:20;;;;;;;16.95;4.65;;;0.10;98.00;;;;;;5054735;28;20031;-66
2022/01/31 00:45:58;;;;;;;13.88;4.65;;;0.10;98.00;;;;;;5050524;28;20021;-66
2022/01/31 00:48:26;;;;;;;17.30;4.30;;;0.20;98.00;;;;;;5051264;28;20052;-66
2022/01/31 00:50:52;;;;;;;17.15;4.20;;;0.40;98.00;;;;;;5047757;28;20071;-66
2022/01/31 00:53:17;;;;;;;18.10;5.07;;;0.60;98.00;;;;;;5050637;28;20045;-66
2022/01/31 00:55:43;;;;;;;22.38;4.68;;;0.70;98.00;;;;;;5054465;28;20031;-66
2022/01/31 00:58:09;;;;;;;14.00;5.07;;;0.70;98.00;;;;;;5054359;28;20029;-65
2022/01/31 01:00:34;;;;;;;19.90;7.32;;;0.70;98.00;;;;;;5065544;28;20025;-67
2022/01/31 01:03:00;;;;;;;12.45;5.05;;;0.70;98.00;;;;;;5046103;28;20472;-65
2022/01/31 01:05:26;;;;;;;15.98;5.03;;;0.70;98.00;;;;;;5038647;28;20430;-66
2022/01/31 01:07:52;;;;;;;16.15;4.47;;;0.80;98.00;;;;;;5043752;28;20025;-66
2022/01/31 01:10:19;;;;;;;12.57;5.10;;;0.90;98.00;;;;;;5042890;28;20086;-66
2022/01/31 01:12:46;;;;;;;18.33;4.78;;;0.90;98.00;;;;;;5051223;28;20321;-66
2022/01/31 01:15:12;;;;;;;19.75;5.22;;;1.00;98.00;;;;;;5054135;28;20035;-66
2022/01/31 01:17:38;;;;;;;15.73;4.18;;;1.00;98.00;;;;;;5054651;28;20037;-66
2022/01/31 01:20:04;;;;;;;19.92;5.13;;;1.10;98.00;;;;;;5048078;28;20100;-66
2022/01/31 01:22:30;;;;;;;20.63;5.25;;;1.20;98.00;;;;;;5047622;28;20408;-66
2022/01/31 01:24:56;;;;;;;20.58;4.93;;;1.20;98.00;;;;;;5048444;28;20049;-66
2022/01/31 01:27:23;;;;;;;18.33;5.47;;;1.20;98.00;;;;;;5046378;28;20140;-65
2022/01/31 01:29:49;;;;;;;13.70;4.35;;;1.20;98.00;;;;;;5039511;28;20079;-66
2022/01/31 01:32:15;;;;;;;11.73;4.45;;;1.20;98.00;;;;;;5050182;28;20318;-66
2022/01/31 01:34:41;;;;;;;24.80;9.23;;;1.20;98.00;;;;;;5041463;28;20030;-68
2022/01/31 01:37:07;;;;;;;209.57;72.85;;;1.20;98.00;;;;;;5043075;28;20322;-66
2022/01/31 01:39:33;;;;;;;19.00;7.60;;;1.20;98.00;;;;;;5036727;28;20414;-66
2022/01/31 01:41:59;;;;;;;20.73;5.65;;;1.20;98.00;;;;;;5042747;28;20032;-66
2022/01/31 01:44:45;;;;;;;20.73;4.95;;;1.20;98.00;;;;;;5041956;28;20032;-66
2022/01/31 01:47:13;;;;;;;15.70;5.10;;;1.20;98.00;;;;;;5039987;28;20037;-67
2022/01/31 01:49:39;;;;;;;12.98;5.00;;;1.20;98.00;;;;;;5042777;28;20109;-66
2022/01/31 01:52:05;;;;;;;22.88;5.70;;;1.20;98.00;;;;;;5039153;28;20377;-67
2022/01/31 01:54:31;;;;;;;20.63;5.90;;;1.10;98.00;;;;;;5041258;28;20017;-67
2022/01/31 01:56:58;;;;;;;18.73;5.63;;;1.00;98.00;;;;;;5039269;28;20033;-67
2022/01/31 01:59:25;;;;;;;18.35;6.05;;;1.10;98.00;;;;;;5045348;28;20091;-67
2022/01/31 02:01:51;;;;;;;22.48;6.47;;;1.10;98.00;;;;;;5039413;28;20112;-67
2022/01/31 02:04:16;;;;;;;17.02;5.95;;;1.00;98.00;;;;;;5060083;28;20103;-67
2022/01/31 02:06:43;;;;;;;18.90;6.60;;;1.00;98.00;;;;;;5054340;28;20025;-66
2022/01/31 02:09:08;;;;;;;15.20;6.40;;;1.00;98.00;;;;;;5041417;28;20025;-66
2022/01/31 02:11:34;;;;;;;21.92;7.53;;;0.90;98.00;;;;;;5041889;28;20467;-66
2022/01/31 02:14:00;;;;;;;20.45;7.88;;;0.90;98.00;;;;;;5044499;28;20026;-66
2022/01/31 02:16:26;;;;;;;15.15;5.90;;;0.90;98.00;;;;;;5050584;28;20028;-66
2022/01/31 02:18:53;;;;;;;15.65;5.82;;;1.00;98.00;;;;;;5056482;28;20060;-66
2022/01/31 02:21:19;;;;;;;25.15;6.97;;;1.10;98.00;;;;;;5041733;28;20101;-67
2022/01/31 02:23:45;;;;;;;16.67;5.93;;;1.10;98.00;;;;;;5038757;28;20117;-67
2022/01/31 02:26:11;;;;;;;20.40;6.25;;;1.20;98.00;;;;;;5052942;28;20035;-66
2022/01/31 02:28:38;;;;;;;19.92;6.88;;;1.20;98.00;;;;;;5050224;28;20042;-67
2022/01/31 02:31:06;;;;;;;23.58;7.05;;;1.30;98.00;;;;;;5046758;28;20025;-66
2022/01/31 02:33:32;;;;;;;17.10;6.93;;;1.30;98.00;;;;;;5049058;28;20033;-68
2022/01/31 02:36:00;;;;;;;19.50;7.57;;;1.30;98.00;;;;;;5045361;28;20038;-67
2022/01/31 02:38:27;;;;;;;22.65;10.07;;;1.30;98.00;;;;;;5039603;28;20022;-67
2022/01/31 02:40:53;;;;;;;16.92;7.63;;;1.20;98.00;;;;;;5052137;28;20036;-66
2022/01/31 02:43:24;;;;;;;22.52;7.65;;;1.20;98.00;;;;;;5051800;28;20329;-67
2022/01/31 02:45:51;;;;;;;19.65;8.20;;;1.20;98.00;;;;;;5051037;28;20175;-66
2022/01/31 02:48:22;;;;;;;20.00;8.52;;;1.20;98.00;;;;;;5041851;28;20088;-66
2022/01/31 02:50:49;;;;;;;21.90;7.82;;;1.20;98.00;;;;;;5048683;28;20417;-67
2022/01/31 02:55:50;;;;;;;31.23;8.82;;;1.20;98.00;;;;;;5045440;28;20087;-66
2022/01/31 02:58:17;;;;;;;22.80;8.07;;;1.20;98.00;;;;;;5052156;28;20656;-66
2022/01/31 03:00:44;;;;;;;21.52;7.68;;;1.20;98.00;;;;;;5047703;28;20326;-65
2022/01/31 03:03:09;;;;;;;17.52;7.72;;;1.10;98.00;;;;;;5051825;28;20021;-65
2022/01/31 03:05:36;;;;;;;19.30;8.50;;;1.10;98.00;;;;;;5052502;28;20402;-65
2022/01/31 03:08:03;;;;;;;26.52;9.00;;;1.10;98.00;;;;;;5054301;28;20033;-66
2022/01/31 03:10:29;;;;;;;18.65;8.15;;;1.10;98.00;;;;;;5044939;28;20112;-67
2022/01/31 03:12:58;;;;;;;28.70;9.55;;;1.00;98.00;;;;;;5044173;28;20120;-67
2022/01/31 03:15:24;;;;;;;20.67;9.00;;;1.00;98.00;;;;;;5041701;28;20025;-67
2022/01/31 03:17:50;;;;;;;23.30;8.40;;;1.00;98.00;;;;;;5045590;28;20037;-66
2022/01/31 03:20:19;;;;;;;33.42;9.25;;;0.90;98.00;;;;;;5039842;28;20317;-66
2022/01/31 03:22:45;;;;;;;19.77;7.70;;;0.90;98.00;;;;;;5043389;28;20446;-67
2022/01/31 03:25:11;;;;;;;19.77;8.65;;;0.90;98.00;;;;;;5039377;28;20135;-66
2022/01/31 03:27:37;;;;;;;17.40;8.70;;;0.90;98.00;;;;;;5042108;28;20116;-66
2022/01/31 03:30:06;;;;;;;18.67;9.50;;;0.90;98.00;;;;;;5041194;28;20026;-66
2022/01/31 03:32:31;;;;;;;17.80;8.70;;;0.80;98.00;;;;;;5043246;28;20020;-66
2022/01/31 03:34:58;;;;;;;18.00;8.77;;;0.80;98.00;;;;;;5040908;28;20057;-67
2022/01/31 03:37:24;;;;;;;26.55;8.88;;;0.70;98.00;;;;;;5039233;28;20036;-66
2022/01/31 03:39:50;;;;;;;16.75;8.13;;;0.70;98.00;;;;;;5040781;28;20111;-66
2022/01/31 03:42:18;;;;;;;17.73;7.57;;;0.80;98.00;;;;;;5046711;28;20369;-66
2022/01/31 03:44:45;;;;;;;18.20;7.93;;;0.80;98.00;;;;;;5044115;28;20040;-66
2022/01/31 03:47:11;;;;;;;17.88;7.15;;;0.90;98.00;;;;;;5039527;28;20029;-66
2022/01/31 03:49:36;;;;;;;18.58;8.35;;;1.00;98.00;;;;;;5047386;28;20029;-66
2022/01/31 03:52:02;;;;;;;16.38;6.50;;;1.00;98.00;;;;;;5047092;28;20031;-66
2022/01/31 03:54:28;;;;;;;17.38;6.05;;;1.10;98.00;;;;;;5044377;28;20031;-66
2022/01/31 03:56:54;;;;;;;14.85;5.60;;;1.20;98.00;;;;;;5037840;28;20330;-66
2022/01/31 03:59:19;;;;;;;18.55;6.35;;;1.40;98.00;;;;;;5044016;28;20025;-67
2022/01/31 04:01:45;;;;;;;12.65;5.15;;;1.50;98.00;;;;;;5040060;28;20428;-67
2022/01/31 04:04:11;;;;;;;18.95;5.88;;;1.60;98.00;;;;;;5044044;28;20025;-65
2022/01/31 04:06:38;;;;;;;19.83;5.43;;;1.70;98.00;;;;;;5044180;28;20018;-66
2022/01/31 04:09:04;;;;;;;16.83;5.35;;;1.70;98.00;;;;;;5043831;28;20403;-66
2022/01/31 04:11:29;;;;;;;14.05;5.35;;;1.70;98.00;;;;;;5039829;28;20067;-66
2022/01/31 04:13:55;;;;;;;25.17;6.22;;;1.80;98.00;;;;;;5043122;28;20068;-66
2022/01/31 04:16:21;;;;;;;12.55;4.85;;;1.90;98.00;;;;;;5048966;28;20325;-67
2022/01/31 04:18:46;;;;;;;17.38;5.07;;;1.90;98.00;;;;;;5049733;28;20024;-67
2022/01/31 04:21:13;;;;;;;14.95;4.32;;;1.90;98.00;;;;;;5053196;28;20071;-66
2022/01/31 04:23:39;;;;;;;18.83;4.65;;;1.90;98.00;;;;;;5047807;28;20404;-66
2022/01/31 04:26:13;;;;;;;22.30;5.30;;;1.90;98.00;;;;;;5050097;28;20111;-66
2022/01/31 04:28:43;;;;;;;18.33;5.43;;;1.80;98.00;;;;;;5048644;28;20377;-67
2022/01/31 04:31:34;;;;;;;11.38;4.95;;;1.80;98.00;;;;;;5053314;28;20021;-66
2022/01/31 04:33:58;;;;;;;9.77;4.20;;;1.90;98.00;;;;;;5053194;28;20024;-66
2022/01/31 04:36:24;;;;;;;10.93;4.00;;;1.90;98.00;;;;;;5043249;28;20035;-66
2022/01/31 04:38:50;;;;;;;14.82;4.45;;;1.90;97.80;;;;;;5040291;28;20372;-66
2022/01/31 04:41:16;;;;;;;11.48;4.47;;;2.00;97.50;;;;;;5049571;28;20377;-66
2022/01/31 04:43:44;;;;;;;17.63;4.88;;;1.90;97.60;;;;;;5041233;28;20108;-66
2022/01/31 04:46:10;;;;;;;18.65;5.47;;;2.00;97.40;;;;;;5050006;28;20029;-67
2022/01/31 04:48:37;;;;;;;11.73;5.18;;;2.00;97.10;;;;;;5044603;28;20048;-67
2022/01/31 04:51:02;;;;;;;14.88;4.40;;;2.00;97.10;;;;;;5044614;28;20105;-67
2022/01/31 04:53:28;;;;;;;14.80;3.90;;;2.00;97.40;;;;;;5042721;28;20116;-67
2022/01/31 04:55:54;;;;;;;14.15;4.45;;;1.90;97.50;;;;;;5046775;28;20084;-67
2022/01/31 04:58:22;;;;;;;16.33;4.90;;;1.90;97.70;;;;;;5042974;28;20041;-67
2022/01/31 05:00:51;;;;;;;12.10;4.47;;;1.90;97.90;;;;;;5044935;28;20367;-67
2022/01/31 05:03:19;;;;;;;16.00;5.32;;;1.90;98.00;;;;;;5044161;28;20022;-67
2022/01/31 05:05:45;;;;;;;12.93;4.60;;;1.90;97.90;;;;;;5048591;28;20417;-66
2022/01/31 05:08:11;;;;;;;12.27;4.78;;;1.90;97.80;;;;;;5044619;28;20063;-67
2022/01/31 05:10:44;;;;;;;14.23;4.97;;;1.90;97.80;;;;;;5050165;28;20037;-66
2022/01/31 05:13:11;;;;;;;14.95;4.38;;;1.90;97.90;;;;;;5050709;28;20029;-67
2022/01/31 05:15:37;;;;;;;14.15;4.47;;;1.90;97.80;;;;;;5052740;28;20646;-67
2022/01/31 05:18:03;;;;;;;13.73;4.97;;;1.90;97.80;;;;;;5046567;28;20064;-67
2022/01/31 05:20:29;;;;;;;8.68;4.88;;;1.90;98.00;;;;;;5049331;28;20024;-68
2022/01/31 05:22:54;;;;;;;17.80;6.05;;;1.80;98.00;;;;;;5048723;28;20021;-67
2022/01/31 05:25:20;;;;;;;17.10;6.35;;;1.80;98.00;;;;;;5044761;28;20049;-67
2022/01/31 05:27:45;;;;;;;15.23;4.68;;;1.80;98.00;;;;;;5046039;28;20420;-67
2022/01/31 05:30:11;;;;;;;15.88;5.03;;;1.90;97.70;;;;;;5045719;28;20029;-67
2022/01/31 05:32:37;;;;;;;13.60;4.40;;;2.00;97.60;;;;;;5053796;28;20112;-66
2022/01/31 05:35:05;;;;;;;14.77;5.25;;;2.00;97.50;;;;;;5042252;28;20428;-66
2022/01/31 05:37:31;;;;;;;16.10;4.32;;;2.10;97.10;;;;;;5051067;28;20021;-69
2022/01/31 05:39:57;;;;;;;9.90;4.38;;;2.10;96.90;;;;;;5052991;28;20025;-67
2022/01/31 05:42:23;;;;;;;15.57;4.65;;;2.30;96.50;;;;;;5039210;28;20310;-67
2022/01/31 05:44:48;;;;;;;12.80;4.40;;;2.30;96.40;;;;;;5045014;28;20028;-67
2022/01/31 05:47:15;;;;;;;10.30;4.15;;;2.30;96.30;;;;;;5037530;28;20099;-67
2022/01/31 05:49:41;;;;;;;14.82;4.35;;;2.40;96.20;;;;;;5046072;28;20196;-67
2022/01/31 05:52:07;;;;;;;14.40;3.85;;;2.40;96.10;;;;;;5056734;28;20025;-68
2022/01/31 05:54:36;;;;;;;12.43;4.03;;;2.40;96.10;;;;;;5054284;28;20474;-67
2022/01/31 05:57:03;;;;;;;14.55;4.97;;;2.50;96.10;;;;;;5051840;28;20028;-67
2022/01/31 05:59:29;;;;;;;14.32;4.43;;;2.60;96.10;;;;;;5058208;28;20099;-67
2022/01/31 06:01:56;;;;;;;12.77;3.83;;;2.60;96.00;;;;;;5036385;28;20024;-67
2022/01/31 06:04:22;;;;;;;10.30;3.88;;;2.60;96.10;;;;;;5045044;28;20306;-68
2022/01/31 06:06:50;;;;;;;14.18;3.78;;;2.70;95.90;;;;;;5044246;28;20075;-68
2022/01/31 06:09:16;;;;;;;14.25;3.88;;;2.80;95.60;;;;;;5047469;28;20467;-67
2022/01/31 06:11:44;;;;;;;12.75;3.83;;;2.80;95.70;;;;;;5038286;28;20025;-66
2022/01/31 06:14:11;;;;;;;12.63;3.60;;;2.80;95.70;;;;;;5035350;28;20097;-67
2022/01/31 06:16:36;;;;;;;16.77;5.30;;;2.80;95.70;;;;;;5041353;28;20078;-68
2022/01/31 06:19:03;;;;;;;11.30;5.00;;;2.90;95.50;;;;;;5037666;28;20038;-68
2022/01/31 06:21:28;;;;;;;12.60;4.60;;;2.90;95.40;;;;;;5035080;28;20017;-67
2022/01/31 06:23:54;;;;;;;13.60;5.18;;;2.90;95.50;;;;;;5034717;28;20033;-67
2022/01/31 06:26:21;;;;;;;10.00;4.05;;;3.00;95.40;;;;;;5035108;28;20034;-68
2022/01/31 06:28:50;;;;;;;9.48;3.78;;;3.00;95.60;;;;;;5043570;28;20086;-67
2022/01/31 06:31:19;;;;;;;11.20;4.80;;;3.00;95.60;;;;;;5034140;28;20318;-67
2022/01/31 06:33:46;;;;;;;12.23;4.95;;;3.10;95.50;;;;;;5039757;28;20045;-68
2022/01/31 06:36:12;;;;;;;11.10;4.05;;;3.10;95.80;;;;;;5040889;28;20025;-68
2022/01/31 06:38:38;;;;;;;14.07;5.00;;;3.10;95.80;;;;;;5043182;28;20030;-66
2022/01/31 06:41:07;;;;;;;14.32;4.40;;;3.20;95.80;;;;;;5048025;28;20033;-68
2022/01/31 06:43:32;;;;;;;13.02;4.68;;;3.20;96.00;;;;;;5039246;28;20021;-68
2022/01/31 06:45:58;;;;;;;12.38;4.47;;;3.20;96.00;;;;;;5039605;28;20084;-67
2022/01/31 06:48:24;;;;;;;13.68;4.53;;;3.20;96.40;;;;;;5050029;28;20021;-68
2022/01/31 06:50:49;;;;;;;13.13;5.03;;;3.10;97.00;;;;;;5054985;28;20029;-67
2022/01/31 06:53:18;;;;;;;16.45;4.72;;;3.10;97.50;;;;;;5058277;28;20103;-68
2022/01/31 06:55:44;;;;;;;9.63;4.85;;;3.10;97.80;;;;;;5039443;28;20102;-68
2022/01/31 06:58:09;;;;;;;10.48;4.60;;;3.10;98.00;;;;;;5039506;28;20056;-69
2022/01/31 07:00:35;;;;;;;11.65;4.63;;;3.00;98.00;;;;;;5039347;28;20030;-68
2022/01/31 07:03:05;;;;;;;13.25;4.80;;;2.90;98.00;;;;;;5050292;28;20453;-70
2022/01/31 07:05:30;;;;;;;14.50;5.15;;;2.90;98.00;;;;;;5050687;28;20043;-70
2022/01/31 07:07:56;;;;;;;16.15;5.03;;;2.70;98.00;;;;;;5038981;28;20025;-69
2022/01/31 07:10:22;;;;;;;22.70;7.82;;;2.60;98.00;;;;;;5038460;28;20018;-69
2022/01/31 07:12:52;;;;;;;9.98;5.75;;;2.50;98.00;;;;;;5058438;28;20025;-69
2022/01/31 07:15:18;;;;;;;21.38;5.50;;;2.40;98.00;;;;;;5059236;28;20017;-69
2022/01/31 07:17:46;;;;;;;12.23;5.57;;;2.40;98.00;;;;;;5038181;28;20037;-69
2022/01/31 07:20:21;;;;;;;12.32;5.00;;;2.30;98.00;;;;;;5040287;28;20037;-69
2022/01/31 07:22:57;;;;;;;12.45;5.65;;;2.30;98.00;;;;;;5039208;28;20147;-69
2022/01/31 07:25:35;;;;;;;13.75;5.63;;;2.30;98.00;;;;;;5049535;28;20045;-69
2022/01/31 07:28:19;;;;;;;14.65;5.82;;;2.30;98.00;;;;;;5057810;28;20039;-70
2022/01/31 07:30:50;;;;;;;15.65;7.97;;;2.20;98.00;;;;;;5057176;28;20021;-70
2022/01/31 07:33:17;;;;;;;18.42;8.82;;;2.20;98.00;;;;;;5057681;28;20021;-70
2022/01/31 07:35:45;;;;;;;15.38;6.50;;;2.20;98.00;;;;;;5051231;28;20020;-70
2022/01/31 07:38:11;;;;;;;14.20;7.43;;;2.20;98.00;;;;;;5038766;28;20083;-70
2022/01/31 07:40:38;;;;;;;14.68;6.55;;;2.20;98.00;;;;;;5048720;28;20033;-71
2022/01/31 07:43:04;;;;;;;14.23;6.65;;;2.10;98.00;;;;;;5053864;28;20112;-70
2022/01/31 07:45:30;;;;;;;18.48;7.95;;;2.10;98.00;;;;;;5058732;28;20033;-70
2022/01/31 07:47:56;;;;;;;15.40;7.68;;;2.10;98.00;;;;;;5046357;28;20038;-69
2022/01/31 07:50:21;;;;;;;13.80;6.82;;;2.10;97.10;;;;;;5039541;28;20051;-69
2022/01/31 07:52:47;;;;;;;17.15;8.43;;;2.00;97.40;;;;;;5038610;28;20048;-70
2022/01/31 07:55:13;;;;;;;16.30;6.30;;;2.10;97.80;;;;;;5039530;28;20025;-69
2022/01/31 07:57:41;;;;;;;18.27;6.90;;;2.10;98.00;;;;;;5039688;28;20041;-69
2022/01/31 08:00:08;;;;;;;14.75;7.60;;;2.10;98.00;;;;;;5038324;28;20044;-70
2022/01/31 08:02:33;;;;;;;16.63;7.10;;;2.00;97.60;;;;;;5041778;28;20033;-69
2022/01/31 08:04:59;;;;;;;15.07;8.38;;;2.00;97.40;;;;;;5058243;28;20032;-70
2022/01/31 08:07:25;;;;;;;14.18;8.00;;;2.00;97.00;;;;;;5055368;28;20021;-69
2022/01/31 08:09:51;;;;;;;13.70;7.75;;;2.00;96.70;;;;;;5045384;28;20014;-69
2022/01/31 08:12:16;;;;;;;15.75;7.90;;;1.90;96.40;;;;;;5038217;28;20032;-69
2022/01/31 08:14:44;;;;;;;19.00;9.00;;;1.90;96.00;;;;;;5038466;28;20472;-69
2022/01/31 08:17:10;;;;;;;26.98;10.65;;;1.80;95.50;;;;;;5037229;28;20028;-70
2022/01/31 08:19:35;;;;;;;30.48;14.63;;;1.80;95.10;;;;;;5054064;28;20021;-70
2022/01/31 08:22:01;;;;;;;33.65;13.90;;;1.70;94.40;;;;;;5057055;28;20044;-69
2022/01/31 08:24:27;;;;;;;24.85;11.52;;;1.70;94.10;;;;;;5037925;28;20052;-70
2022/01/31 08:26:53;;;;;;;27.80;11.75;;;1.70;93.70;;;;;;5037942;28;20033;-70
2022/01/31 08:29:23;;;;;;;29.95;12.95;;;1.70;93.00;;;;;;5054994;28;20414;-70
2022/01/31 08:31:52;;;;;;;18.42;9.50;;;1.70;92.50;;;;;;5056314;28;20051;-69
2022/01/31 08:34:24;;;;;;;24.90;10.40;;;1.70;92.80;;;;;;5040772;28;20116;-70
2022/01/31 08:36:50;;;;;;;19.92;9.93;;;1.60;92.50;;;;;;5038758;28;20022;-70
2022/01/31 08:39:18;;;;;;;18.40;9.43;;;1.60;92.80;;;;;;5037773;28;20108;-70
2022/01/31 08:41:47;;;;;;;21.23;9.70;;;1.60;92.30;;;;;;5037598;28;20080;-69
2022/01/31 08:44:17;;;;;;;23.90;8.48;;;1.50;92.30;;;;;;5051961;28;20028;-69
2022/01/31 08:46:45;;;;;;;21.88;9.68;;;1.50;91.80;;;;;;5048672;28;20060;-69
2022/01/31 08:49:13;;;;;;;20.85;11.00;;;1.40;90.90;;;;;;5037322;28;20022;-68
2022/01/31 08:51:40;;;;;;;22.85;12.02;;;1.40;90.50;;;;;;5041530;28;20026;-68
2022/01/31 08:54:06;;;;;;;21.90;9.93;;;1.50;90.10;;;;;;5038325;28;20021;-70
2022/01/31 08:56:40;;;;;;;20.52;11.18;;;1.50;89.70;;;;;;5050561;28;20021;-70
2022/01/31 08:59:12;;;;;;;;;;;1.50;90.40;;;;;;5057302;28;20056;-69
2022/01/31 09:01:43;;;;;;;15.68;9.25;;;1.40;90.50;;;;;;5041155;28;19909;-70
2022/01/31 09:04:12;;;;;;;17.20;8.75;;;1.30;89.80;;;;;;5036198;28;20104;-70
2022/01/31 09:06:38;;;;;;;17.73;8.82;;;1.30;89.40;;;;;;5039486;28;20029;-69
2022/01/31 09:09:08;;;;;;;12.68;7.68;;;1.10;90.10;;;;;;5037018;28;20029;-69
2022/01/31 09:11:36;;;;;;;15.57;7.57;;;1.00;89.50;;;;;;5037073;28;20029;-70
2022/01/31 09:14:03;;;;;;;11.13;6.78;;;1.00;88.70;;;;;;5038164;28;20013;-69
2022/01/31 09:16:30;;;;;;;12.85;6.35;;;0.90;88.50;;;;;;5037010;28;20032;-70
2022/01/31 09:18:56;;;;;;;16.77;7.88;;;0.90;88.50;;;;;;5046582;28;20025;-69
2022/01/31 09:21:22;;;;;;;15.70;7.30;;;0.80;89.00;;;;;;5055199;28;20031;-70
2022/01/31 09:23:52;;;;;;;11.90;7.22;;;0.70;88.30;;;;;;5049919;28;20435;-70
2022/01/31 09:26:21;;;;;;;14.00;8.68;;;0.70;87.40;;;;;;5056892;28;20066;-70
2022/01/31 09:28:48;;;;;;;11.70;7.93;;;0.60;87.20;;;;;;5042441;28;20029;-70
2022/01/31 09:31:15;;;;;;;9.98;6.00;;;0.60;86.70;;;;;;5036623;28;20014;-70
2022/01/31 09:33:41;;;;;;;12.35;6.88;;;0.60;86.80;;;;;;5046821;28;20086;-70
2022/01/31 09:36:06;;;;;;;11.63;6.60;;;0.70;86.40;;;;;;5056523;28;20100;-70
2022/01/31 09:38:32;;;;;;;11.05;6.57;;;0.70;85.80;;;;;;5052873;28;20044;-70
2022/01/31 09:40:58;;;;;;;13.10;7.78;;;0.80;86.10;;;;;;5054836;28;20025;-69
2022/01/31 09:46:15;;;;;;;9.25;5.53;;;1.00;85.40;;;;;;5036626;28;20322;-72
2022/01/31 09:48:43;;;;;;;9.52;4.90;;;1.30;84.10;;;;;;5044729;28;20029;-72
2022/01/31 09:51:17;;;;;;;9.20;4.82;;;1.80;84.80;;;;;;5052832;28;20067;-71
2022/01/31 09:53:49;;;;;;;8.75;5.15;;;2.00;87.40;;;;;;5036339;28;20064;-71
2022/01/31 09:56:19;;;;;;;6.78;4.00;;;2.10;88.90;;;;;;5036334;28;20326;-70
2022/01/31 09:58:45;;;;;;;5.88;3.60;;;2.10;91.40;;;;;;5036222;28;20080;-71
2022/01/31 10:01:14;;;;;;;6.45;3.20;;;2.10;92.70;;;;;;5042295;28;20035;-70
2022/01/31 10:03:44;;;;;;;30.75;11.40;;;2.00;94.40;;;;;;5054950;28;20071;-70
2022/01/31 10:06:19;;;;;;;10.70;4.13;;;2.00;93.90;;;;;;5048344;28;20030;-69
2022/01/31 10:08:45;;;;;;;11.15;5.55;;;2.10;94.10;;;;;;5037275;28;20452;-70
2022/01/31 10:11:38;;;;;;;7.72;4.03;;;2.20;95.70;;;;;;5036678;28;20033;-69
2022/01/31 10:17:23;;;;;;;6.28;3.60;;;2.30;98.00;;;;;;5035557;28;20076;-69
2022/01/31 10:19:49;;;;;;;7.10;3.30;;;2.60;98.00;;;;;;5035015;28;20029;-69
2022/01/31 10:22:17;;;;;;;7.50;3.92;;;2.70;98.00;;;;;;5034924;28;20031;-69
2022/01/31 10:24:46;;;;;;;7.93;3.67;;;2.80;98.00;;;;;;5035728;28;20120;-69
2022/01/31 10:27:36;;;;;;;9.40;4.38;;;3.10;98.00;;;;;;5035936;28;20092;-69
2022/01/31 10:30:23;;;;;;;8.40;3.88;;;3.30;98.00;;;;;;5036070;28;20018;-69
2022/01/31 10:32:49;;;;;;;6.20;2.47;;;3.20;98.00;;;;;;5037409;28;20022;-70
2022/01/31 10:35:20;;;;;;;7.90;3.60;;;3.10;98.00;;;;;;5055834;28;20368;-69
2022/01/31 10:37:47;;;;;;;7.47;3.75;;;3.00;98.00;;;;;;5055852;28;20025;-70
2022/01/31 10:53:47;;;;;;;12.32;4.20;;;2.60;98.00;;;;;;5035689;28;20053;-69
2022/01/31 10:56:16;;;;;;;8.88;3.90;;;2.70;98.00;;;;;;5054096;28;20309;-68
2022/01/31 10:58:54;;;;;;;7.00;3.03;;;2.70;98.00;;;;;;5054701;28;20033;-68
2022/01/31 11:01:20;;;;;;;5.90;2.80;;;2.70;98.00;;;;;;5046551;28;20120;-68
2022/01/31 11:03:46;;;;;;;9.48;3.20;;;2.90;98.00;;;;;;5035462;28;20100;-69
2022/01/31 11:06:14;;;;;;;10.30;3.15;;;3.10;98.00;;;;;;5035525;28;20117;-69
2022/01/31 11:08:40;;;;;;;7.35;2.92;;;3.30;98.00;;;;;;5035120;28;20103;-69
2022/01/31 11:11:09;;;;;;;6.80;2.95;;;3.20;98.00;;;;;;5043427;28;20422;-68
2022/01/31 11:13:38;;;;;;;7.28;3.00;;;3.30;98.00;;;;;;5041524;28;20022;-69
2022/01/31 11:16:06;;;;;;;7.45;3.10;;;3.50;98.00;;;;;;5034797;28;20033;-69
2022/01/31 11:18:34;;;;;;;8.48;3.30;;;4.00;98.00;;;;;;5037171;28;20017;-69
2022/01/31 11:21:27;;;;;;;5.97;2.30;;;4.30;98.00;;;;;;5034895;28;20112;-69
2022/01/31 11:23:53;;;;;;;7.55;2.60;;;4.70;98.00;;;;;;5037264;28;20097;-69
2022/01/31 11:26:21;;;;;;;7.78;2.88;;;4.50;98.00;;;;;;5050004;28;20037;-69
2022/01/31 11:28:48;;;;;;;5.38;2.67;;;4.40;98.00;;;;;;5051462;28;20041;-67
2022/01/31 11:31:17;;;;;;;7.38;2.38;;;4.30;98.00;;;;;;5055929;28;20045;-69
2022/01/31 11:33:45;;;;;;;9.30;3.08;;;4.10;98.00;;;;;;5048931;28;20025;-68
2022/01/31 11:36:11;;;;;;;6.55;2.70;;;4.00;98.00;;;;;;5057834;28;20028;-67
2022/01/31 11:38:40;;;;;;;6.20;2.72;;;4.00;98.00;;;;;;5043873;28;20025;-67
2022/01/31 11:41:09;;;;;;;6.40;2.60;;;3.90;98.00;;;;;;5051212;28;20110;-67
2022/01/31 11:43:36;;;;;;;7.68;2.33;;;4.00;98.00;;;;;;5044934;28;20032;-67
2022/01/31 11:46:02;;;;;;;6.43;2.08;;;3.90;98.00;;;;;;5040134;28;20036;-68
2022/01/31 11:48:30;;;;;;;6.07;2.30;;;4.00;98.00;;;;;;5047963;28;20414;-68
2022/01/31 11:50:59;;;;;;;5.93;2.08;;;3.90;98.00;;;;;;5039445;28;20469;-68
2022/01/31 11:53:34;;;;;;;12.32;4.35;;;3.80;98.00;;;;;;5040730;28;20030;-68
2022/01/31 11:56:14;;;;;;;6.38;2.30;;;3.80;98.00;;;;;;5049174;28;20033;-67
2022/01/31 11:58:53;;;;;;;7.05;2.10;;;3.70;98.00;;;;;;5036538;28;20045;-68
2022/01/31 12:01:21;;;;;;;8.82;3.10;;;3.70;98.00;;;;;;5050569;28;20155;-67
2022/01/31 12:03:58;;;;;;;8.77;2.83;;;3.80;98.00;;;;;;5053176;28;20021;-68
2022/01/31 12:06:27;;;;;;;7.28;2.88;;;3.80;98.00;;;;;;5055739;28;20021;-68
2022/01/31 12:08:54;;;;;;;8.13;3.22;;;3.70;98.00;;;;;;5050771;28;20064;-68
2022/01/31 12:11:29;;;;;;;7.55;2.20;;;3.70;98.00;;;;;;5051923;28;20036;-68
2022/01/31 12:14:00;;;;;;;8.20;2.53;;;3.70;98.00;;;;;;5050938;28;20020;-67
2022/01/31 12:16:45;;;;;;;4.90;2.00;;;3.60;98.00;;;;;;5041263;28;20021;-67
2022/01/31 12:22:29;;;;;;;9.80;2.47;;;3.30;97.40;;;;;;5044942;28;20029;-68
2022/01/31 12:24:54;;;;;;;6.50;2.38;;;3.10;98.00;;;;;;5045956;28;20044;-68
2022/01/31 12:27:28;;;;;;;7.28;2.67;;;2.90;98.00;;;;;;5049458;28;20739;-68
2022/01/31 12:29:57;;;;;;;5.70;2.58;;;2.70;98.00;;;;;;5043628;28;20026;-69
2022/01/31 12:32:35;;;;;;;5.80;2.97;;;2.60;98.00;;;;;;5034151;28;20033;-68
2022/01/31 12:35:10;;;;;;;5.68;2.67;;;2.50;98.00;;;;;;5048684;28;20032;-68
2022/01/31 12:37:48;;;;;;;9.30;3.75;;;2.30;98.00;;;;;;5053436;28;20313;-67
2022/01/31 12:40:28;;;;;;;6.18;2.78;;;2.10;98.00;;;;;;5050802;28;20063;-67
2022/01/31 12:45:51;;;;;;;;;;;2.00;98.00;;;;;;5053109;28;20033;-68
2022/01/31 12:48:21;;;;;;;10.35;3.65;;;2.00;98.00;;;;;;5054735;28;20034;-69
2022/01/31 12:50:53;;;;;;;9.90;4.18;;;2.10;98.00;;;;;;5042021;28;20068;-69
2022/01/31 12:53:36;;;;;;;10.30;4.05;;;2.10;98.00;;;;;;5053150;28;20039;-68
2022/01/31 12:56:21;;;;;;;13.20;3.65;;;2.20;98.00;;;;;;5049912;28;20118;-69
2022/01/31 12:58:59;;;;;;;9.68;2.90;;;2.30;98.00;;;;;;5053099;28;20048;-68
2022/01/31 13:01:27;;;;;;;7.88;3.33;;;2.30;98.00;;;;;;5038480;28;20029;-67
2022/01/31 13:04:20;;;;;;;11.13;3.88;;;2.30;98.00;;;;;;5034930;28;20060;-68
2022/01/31 13:06:48;;;;;;;9.20;3.50;;;2.30;98.00;;;;;;5035607;28;20353;-69
2022/01/31 13:09:24;;;;;;;8.18;2.83;;;2.40;98.00;;;;;;5039801;28;20021;-68
2022/01/31 13:12:23;;;;;;;8.82;3.20;;;2.40;98.00;;;;;;5036106;28;20337;-68
2022/01/31 13:14:50;;;;;;;8.68;3.47;;;2.40;98.00;;;;;;5067617;28;20030;-66
2022/01/31 13:17:21;;;;;;;11.50;3.08;;;2.40;98.00;;;;;;5038049;28;20322;-68
2022/01/31 13:19:55;;;;;;;7.35;3.50;;;2.40;98.00;;;;;;5043770;28;20104;-67
2022/01/31 13:22:37;;;;;;;10.00;2.88;;;2.40;98.00;;;;;;5036127;28;20024;-67
2022/01/31 13:25:04;;;;;;;6.45;2.95;;;2.40;98.00;;;;;;5034930;28;20041;-67